sensor_id;sensor_type;location;lat;lon;timestamp;temperature;humidity
80367;DHT22;70058;42.660;23.366;2024-03-06T00:00:32;9.80;57.90
80367;DHT22;70058;42.660;23.366;2024-03-06T00:02:58;9.80;58.10
80367;DHT22;70058;42.660;23.366;2024-03-06T00:05:24;9.70;57.80
80367;DHT22;70058;42.660;23.366;2024-03-06T00:07:50;9.70;58.00
80367;DHT22;70058;42.660;23.366;2024-03-06T00:10:15;9.70;58.20
80367;DHT22;70058;42.660;23.366;2024-03-06T00:12:41;9.70;58.40
80367;DHT22;70058;42.660;23.366;2024-03-06T00:15:07;9.50;59.10
80367;DHT22;70058;42.660;23.366;2024-03-06T00:17:33;9.40;59.60
80367;DHT22;70058;42.660;23.366;2024-03-06T00:19:59;9.50;59.30
80367;DHT22;70058;42.660;23.366;2024-03-06T00:22:24;9.40;59.70
80367;DHT22;70058;42.660;23.366;2024-03-06T00:24:51;9.30;59.80
80367;DHT22;70058;42.660;23.366;2024-03-06T00:27:16;9.30;60.00
80367;DHT22;70058;42.660;23.366;2024-03-06T00:29:42;9.20;60.10
80367;DHT22;70058;42.660;23.366;2024-03-06T00:32:08;9.00;61.30
80367;DHT22;70058;42.660;23.366;2024-03-06T00:34:33;9.00;61.00
80367;DHT22;70058;42.660;23.366;2024-03-06T00:36:59;9.00;61.40
80367;DHT22;70058;42.660;23.366;2024-03-06T00:39:25;8.90;61.60
80367;DHT22;70058;42.660;23.366;2024-03-06T00:41:50;8.90;61.80
80367;DHT22;70058;42.660;23.366;2024-03-06T00:44:16;8.90;61.70
80367;DHT22;70058;42.660;23.366;2024-03-06T00:46:42;8.80;61.60
80367;DHT22;70058;42.660;23.366;2024-03-06T00:49:08;8.90;61.30
80367;DHT22;70058;42.660;23.366;2024-03-06T00:51:34;8.80;61.70
80367;DHT22;70058;42.660;23.366;2024-03-06T00:54:02;8.70;61.80
80367;DHT22;70058;42.660;23.366;2024-03-06T00:56:28;8.70;61.90
80367;DHT22;70058;42.660;23.366;2024-03-06T00:58:53;8.60;62.30
80367;DHT22;70058;42.660;23.366;2024-03-06T01:01:19;8.60;62.40
80367;DHT22;70058;42.660;23.366;2024-03-06T01:03:45;8.60;62.10
80367;DHT22;70058;42.660;23.366;2024-03-06T01:06:10;8.60;62.80
80367;DHT22;70058;42.660;23.366;2024-03-06T01:08:36;8.50;63.00
80367;DHT22;70058;42.660;23.366;2024-03-06T01:11:02;8.50;62.80
80367;DHT22;70058;42.660;23.366;2024-03-06T01:13:30;8.60;62.30
80367;DHT22;70058;42.660;23.366;2024-03-06T01:15:55;8.70;62.20
80367;DHT22;70058;42.660;23.366;2024-03-06T01:18:21;8.60;62.80
80367;DHT22;70058;42.660;23.366;2024-03-06T01:20:47;8.50;62.90
80367;DHT22;70058;42.660;23.366;2024-03-06T01:23:12;8.40;62.60
80367;DHT22;70058;42.660;23.366;2024-03-06T01:25:38;8.50;62.90
80367;DHT22;70058;42.660;23.366;2024-03-06T01:28:03;8.50;62.90
80367;DHT22;70058;42.660;23.366;2024-03-06T01:30:29;8.50;62.90
80367;DHT22;70058;42.660;23.366;2024-03-06T01:32:55;8.40;63.00
80367;DHT22;70058;42.660;23.366;2024-03-06T01:35:20;8.40;63.10
80367;DHT22;70058;42.660;23.366;2024-03-06T01:37:46;8.40;62.80
80367;DHT22;70058;42.660;23.366;2024-03-06T01:40:12;8.40;63.20
80367;DHT22;70058;42.660;23.366;2024-03-06T01:42:38;8.30;63.80
80367;DHT22;70058;42.660;23.366;2024-03-06T01:45:04;8.20;64.30
80367;DHT22;70058;42.660;23.366;2024-03-06T01:47:30;8.30;64.00
80367;DHT22;70058;42.660;23.366;2024-03-06T01:49:55;8.30;64.20
80367;DHT22;70058;42.660;23.366;2024-03-06T01:52:22;8.30;64.30
80367;DHT22;70058;42.660;23.366;2024-03-06T01:54:48;8.40;63.90
80367;DHT22;70058;42.660;23.366;2024-03-06T01:57:17;8.40;63.50
80367;DHT22;70058;42.660;23.366;2024-03-06T01:59:43;8.30;64.10
80367;DHT22;70058;42.660;23.366;2024-03-06T02:02:09;8.30;64.80
80367;DHT22;70058;42.660;23.366;2024-03-06T02:04:37;8.30;64.10
80367;DHT22;70058;42.660;23.366;2024-03-06T02:07:03;8.30;63.50
80367;DHT22;70058;42.660;23.366;2024-03-06T02:09:29;8.30;63.60
80367;DHT22;70058;42.660;23.366;2024-03-06T02:11:55;8.30;63.70
80367;DHT22;70058;42.660;23.366;2024-03-06T02:14:20;8.30;63.40
80367;DHT22;70058;42.660;23.366;2024-03-06T02:16:46;8.20;64.10
80367;DHT22;70058;42.660;23.366;2024-03-06T02:19:11;8.40;63.60
80367;DHT22;70058;42.660;23.366;2024-03-06T02:21:37;8.70;62.00
80367;DHT22;70058;42.660;23.366;2024-03-06T02:24:03;8.70;61.20
80367;DHT22;70058;42.660;23.366;2024-03-06T02:26:28;8.60;61.50
80367;DHT22;70058;42.660;23.366;2024-03-06T02:28:55;8.50;61.50
80367;DHT22;70058;42.660;23.366;2024-03-06T02:31:21;8.40;61.50
80367;DHT22;70058;42.660;23.366;2024-03-06T02:33:48;8.30;61.40
80367;DHT22;70058;42.660;23.366;2024-03-06T02:36:18;8.40;61.10
80367;DHT22;70058;42.660;23.366;2024-03-06T02:38:44;8.30;61.10
80367;DHT22;70058;42.660;23.366;2024-03-06T02:41:11;8.10;61.00
80367;DHT22;70058;42.660;23.366;2024-03-06T02:43:37;8.10;61.30
80367;DHT22;70058;42.660;23.366;2024-03-06T02:46:03;8.00;60.90
80367;DHT22;70058;42.660;23.366;2024-03-06T02:48:30;7.90;61.00
80367;DHT22;70058;42.660;23.366;2024-03-06T02:50:56;7.90;60.90
80367;DHT22;70058;42.660;23.366;2024-03-06T02:53:22;7.90;61.20
80367;DHT22;70058;42.660;23.366;2024-03-06T02:55:48;7.80;61.50
80367;DHT22;70058;42.660;23.366;2024-03-06T02:58:14;7.60;62.20
80367;DHT22;70058;42.660;23.366;2024-03-06T03:00:42;7.50;62.10
80367;DHT22;70058;42.660;23.366;2024-03-06T03:03:07;7.50;62.50
80367;DHT22;70058;42.660;23.366;2024-03-06T03:05:33;7.40;62.40
80367;DHT22;70058;42.660;23.366;2024-03-06T03:07:59;7.40;62.80
80367;DHT22;70058;42.660;23.366;2024-03-06T03:10:25;7.50;62.20
80367;DHT22;70058;42.660;23.366;2024-03-06T03:12:51;7.40;62.40
80367;DHT22;70058;42.660;23.366;2024-03-06T03:15:17;7.50;62.50
80367;DHT22;70058;42.660;23.366;2024-03-06T03:17:42;7.50;62.00
80367;DHT22;70058;42.660;23.366;2024-03-06T03:20:08;7.40;62.40
80367;DHT22;70058;42.660;23.366;2024-03-06T03:22:37;7.30;62.90
80367;DHT22;70058;42.660;23.366;2024-03-06T03:25:06;7.30;63.30
80367;DHT22;70058;42.660;23.366;2024-03-06T03:27:32;7.40;62.60
80367;DHT22;70058;42.660;23.366;2024-03-06T03:29:58;7.40;62.90
80367;DHT22;70058;42.660;23.366;2024-03-06T03:32:24;7.40;63.00
80367;DHT22;70058;42.660;23.366;2024-03-06T03:34:49;7.50;62.60
80367;DHT22;70058;42.660;23.366;2024-03-06T03:37:15;7.50;62.60
80367;DHT22;70058;42.660;23.366;2024-03-06T03:39:43;7.50;62.50
80367;DHT22;70058;42.660;23.366;2024-03-06T03:42:08;7.40;62.90
80367;DHT22;70058;42.660;23.366;2024-03-06T03:44:34;7.50;62.80
80367;DHT22;70058;42.660;23.366;2024-03-06T03:47:00;7.50;62.60
80367;DHT22;70058;42.660;23.366;2024-03-06T03:49:25;7.40;63.00
80367;DHT22;70058;42.660;23.366;2024-03-06T03:51:51;7.40;62.90
80367;DHT22;70058;42.660;23.366;2024-03-06T03:54:17;7.50;62.80
80367;DHT22;70058;42.660;23.366;2024-03-06T03:56:43;7.50;62.90
80367;DHT22;70058;42.660;23.366;2024-03-06T03:59:08;7.50;63.00
80367;DHT22;70058;42.660;23.366;2024-03-06T04:01:34;7.40;63.00
80367;DHT22;70058;42.660;23.366;2024-03-06T04:03:59;7.30;62.70
80367;DHT22;70058;42.660;23.366;2024-03-06T04:06:25;7.30;62.70
80367;DHT22;70058;42.660;23.366;2024-03-06T04:08:51;7.30;63.50
80367;DHT22;70058;42.660;23.366;2024-03-06T04:11:16;7.30;62.80
80367;DHT22;70058;42.660;23.366;2024-03-06T04:13:42;7.30;63.10
80367;DHT22;70058;42.660;23.366;2024-03-06T04:16:08;7.40;62.90
80367;DHT22;70058;42.660;23.366;2024-03-06T04:18:34;7.40;62.80
80367;DHT22;70058;42.660;23.366;2024-03-06T04:21:06;7.40;62.40
80367;DHT22;70058;42.660;23.366;2024-03-06T04:23:33;7.40;62.60
80367;DHT22;70058;42.660;23.366;2024-03-06T04:25:59;7.40;62.20
80367;DHT22;70058;42.660;23.366;2024-03-06T04:28:25;7.50;62.10
80367;DHT22;70058;42.660;23.366;2024-03-06T04:30:51;7.50;62.00
80367;DHT22;70058;42.660;23.366;2024-03-06T04:33:16;7.30;62.20
80367;DHT22;70058;42.660;23.366;2024-03-06T04:35:42;7.40;62.20
80367;DHT22;70058;42.660;23.366;2024-03-06T04:38:08;7.30;62.70
80367;DHT22;70058;42.660;23.366;2024-03-06T04:40:34;7.30;62.50
80367;DHT22;70058;42.660;23.366;2024-03-06T04:43:02;7.40;62.00
80367;DHT22;70058;42.660;23.366;2024-03-06T04:45:28;7.20;62.10
80367;DHT22;70058;42.660;23.366;2024-03-06T04:47:54;7.20;62.40
80367;DHT22;70058;42.660;23.366;2024-03-06T04:50:20;7.20;62.70
80367;DHT22;70058;42.660;23.366;2024-03-06T04:52:46;7.10;63.40
80367;DHT22;70058;42.660;23.366;2024-03-06T04:55:12;7.30;62.80
80367;DHT22;70058;42.660;23.366;2024-03-06T04:57:43;7.30;62.30
80367;DHT22;70058;42.660;23.366;2024-03-06T05:00:10;7.30;62.70
80367;DHT22;70058;42.660;23.366;2024-03-06T05:02:36;7.40;62.70
80367;DHT22;70058;42.660;23.366;2024-03-06T05:05:03;7.40;62.50
80367;DHT22;70058;42.660;23.366;2024-03-06T05:07:30;7.50;62.70
80367;DHT22;70058;42.660;23.366;2024-03-06T05:09:56;7.50;62.30
80367;DHT22;70058;42.660;23.366;2024-03-06T05:12:25;7.50;62.50
80367;DHT22;70058;42.660;23.366;2024-03-06T05:14:55;7.60;62.40
80367;DHT22;70058;42.660;23.366;2024-03-06T05:17:21;7.60;62.50
80367;DHT22;70058;42.660;23.366;2024-03-06T05:19:48;7.80;62.20
80367;DHT22;70058;42.660;23.366;2024-03-06T05:22:15;8.00;61.60
80367;DHT22;70058;42.660;23.366;2024-03-06T05:24:42;8.10;61.00
80367;DHT22;70058;42.660;23.366;2024-03-06T05:27:08;8.20;60.60
80367;DHT22;70058;42.660;23.366;2024-03-06T05:29:35;8.40;60.00
80367;DHT22;70058;42.660;23.366;2024-03-06T05:32:02;8.60;59.40
80367;DHT22;70058;42.660;23.366;2024-03-06T05:34:29;8.80;58.80
80367;DHT22;70058;42.660;23.366;2024-03-06T05:36:55;8.90;58.10
80367;DHT22;70058;42.660;23.366;2024-03-06T05:39:21;9.10;57.40
80367;DHT22;70058;42.660;23.366;2024-03-06T05:41:47;9.10;57.20
80367;DHT22;70058;42.660;23.366;2024-03-06T05:44:13;9.30;56.60
80367;DHT22;70058;42.660;23.366;2024-03-06T05:46:39;9.40;56.80
80367;DHT22;70058;42.660;23.366;2024-03-06T05:49:05;9.60;56.00
80367;DHT22;70058;42.660;23.366;2024-03-06T05:51:31;9.60;56.00
80367;DHT22;70058;42.660;23.366;2024-03-06T05:53:56;9.60;56.20
80367;DHT22;70058;42.660;23.366;2024-03-06T05:56:22;9.70;56.20
80367;DHT22;70058;42.660;23.366;2024-03-06T05:58:48;9.80;55.30
80367;DHT22;70058;42.660;23.366;2024-03-06T06:01:18;9.90;55.60
80367;DHT22;70058;42.660;23.366;2024-03-06T06:03:50;9.70;54.70
80367;DHT22;70058;42.660;23.366;2024-03-06T06:06:16;9.90;55.20
80367;DHT22;70058;42.660;23.366;2024-03-06T06:08:44;10.10;55.10
80367;DHT22;70058;42.660;23.366;2024-03-06T06:11:10;10.20;54.90
80367;DHT22;70058;42.660;23.366;2024-03-06T06:13:36;10.30;54.70
80367;DHT22;70058;42.660;23.366;2024-03-06T06:16:02;10.40;54.70
80367;DHT22;70058;42.660;23.366;2024-03-06T06:18:28;10.60;54.40
80367;DHT22;70058;42.660;23.366;2024-03-06T06:20:54;10.70;53.70
80367;DHT22;70058;42.660;23.366;2024-03-06T06:23:20;11.00;53.10
80367;DHT22;70058;42.660;23.366;2024-03-06T06:25:46;11.10;52.80
80367;DHT22;70058;42.660;23.366;2024-03-06T06:28:12;11.30;52.20
80367;DHT22;70058;42.660;23.366;2024-03-06T06:30:37;11.40;52.30
80367;DHT22;70058;42.660;23.366;2024-03-06T06:33:04;11.60;52.10
80367;DHT22;70058;42.660;23.366;2024-03-06T06:35:30;11.80;51.90
80367;DHT22;70058;42.660;23.366;2024-03-06T06:37:56;11.90;51.40
80367;DHT22;70058;42.660;23.366;2024-03-06T06:40:21;12.00;51.30
80367;DHT22;70058;42.660;23.366;2024-03-06T06:42:48;12.20;51.20
80367;DHT22;70058;42.660;23.366;2024-03-06T06:45:18;12.20;50.70
80367;DHT22;70058;42.660;23.366;2024-03-06T06:47:45;12.30;50.70
80367;DHT22;70058;42.660;23.366;2024-03-06T06:50:10;12.60;49.70
80367;DHT22;70058;42.660;23.366;2024-03-06T06:52:37;12.60;50.20
80367;DHT22;70058;42.660;23.366;2024-03-06T06:55:03;12.70;49.40
80367;DHT22;70058;42.660;23.366;2024-03-06T06:57:30;12.80;48.90
80367;DHT22;70058;42.660;23.366;2024-03-06T06:59:55;13.00;48.70
80367;DHT22;70058;42.660;23.366;2024-03-06T07:02:21;13.00;48.40
80367;DHT22;70058;42.660;23.366;2024-03-06T07:04:47;13.00;48.40
80367;DHT22;70058;42.660;23.366;2024-03-06T07:07:14;13.10;48.10
80367;DHT22;70058;42.660;23.366;2024-03-06T07:09:40;13.00;48.40
80367;DHT22;70058;42.660;23.366;2024-03-06T07:12:06;13.10;48.30
80367;DHT22;70058;42.660;23.366;2024-03-06T07:14:36;13.20;48.40
80367;DHT22;70058;42.660;23.366;2024-03-06T07:17:02;13.30;47.60
80367;DHT22;70058;42.660;23.366;2024-03-06T07:19:30;13.30;47.60
80367;DHT22;70058;42.660;23.366;2024-03-06T07:21:56;13.30;47.20
80367;DHT22;70058;42.660;23.366;2024-03-06T07:24:22;13.40;47.30
80367;DHT22;70058;42.660;23.366;2024-03-06T07:26:47;13.60;47.20
80367;DHT22;70058;42.660;23.366;2024-03-06T07:29:13;13.90;46.20
80367;DHT22;70058;42.660;23.366;2024-03-06T07:31:41;15.00;44.60
80367;DHT22;70058;42.660;23.366;2024-03-06T07:34:08;16.10;41.90
80367;DHT22;70058;42.660;23.366;2024-03-06T07:36:34;17.20;39.50
80367;DHT22;70058;42.660;23.366;2024-03-06T07:39:01;18.20;37.90
80367;DHT22;70058;42.660;23.366;2024-03-06T07:41:27;19.10;36.10
80367;DHT22;70058;42.660;23.366;2024-03-06T07:43:52;19.90;34.50
80367;DHT22;70058;42.660;23.366;2024-03-06T07:46:18;20.60;33.00
80367;DHT22;70058;42.660;23.366;2024-03-06T07:48:44;21.40;32.90
80367;DHT22;70058;42.660;23.366;2024-03-06T07:51:09;22.30;30.50
80367;DHT22;70058;42.660;23.366;2024-03-06T07:53:38;23.00;29.40
80367;DHT22;70058;42.660;23.366;2024-03-06T07:56:04;23.60;28.80
80367;DHT22;70058;42.660;23.366;2024-03-06T07:58:30;24.10;28.10
80367;DHT22;70058;42.660;23.366;2024-03-06T08:00:56;23.60;27.70
80367;DHT22;70058;42.660;23.366;2024-03-06T08:03:24;24.10;27.70
80367;DHT22;70058;42.660;23.366;2024-03-06T08:05:53;24.50;27.30
80367;DHT22;70058;42.660;23.366;2024-03-06T08:08:19;25.10;27.00
80367;DHT22;70058;42.660;23.366;2024-03-06T08:10:45;25.00;26.10
80367;DHT22;70058;42.660;23.366;2024-03-06T08:13:11;24.50;26.70
80367;DHT22;70058;42.660;23.366;2024-03-06T08:15:37;24.90;26.90
80367;DHT22;70058;42.660;23.366;2024-03-06T08:18:03;25.60;26.70
80367;DHT22;70058;42.660;23.366;2024-03-06T08:20:29;26.40;26.00
80367;DHT22;70058;42.660;23.366;2024-03-06T08:22:55;26.00;25.30
80367;DHT22;70058;42.660;23.366;2024-03-06T08:25:21;26.60;25.40
80367;DHT22;70058;42.660;23.366;2024-03-06T08:27:47;27.20;24.80
80367;DHT22;70058;42.660;23.366;2024-03-06T08:30:13;27.60;24.50
80367;DHT22;70058;42.660;23.366;2024-03-06T08:32:39;28.00;24.10
80367;DHT22;70058;42.660;23.366;2024-03-06T08:35:06;28.60;23.90
80367;DHT22;70058;42.660;23.366;2024-03-06T08:37:34;29.20;23.40
80367;DHT22;70058;42.660;23.366;2024-03-06T08:40:01;29.60;23.00
80367;DHT22;70058;42.660;23.366;2024-03-06T08:42:29;29.70;22.50
80367;DHT22;70058;42.660;23.366;2024-03-06T08:44:55;30.30;22.30
80367;DHT22;70058;42.660;23.366;2024-03-06T08:47:22;30.50;21.90
80367;DHT22;70058;42.660;23.366;2024-03-06T08:49:48;30.90;21.70
80367;DHT22;70058;42.660;23.366;2024-03-06T08:52:17;31.30;21.40
80367;DHT22;70058;42.660;23.366;2024-03-06T08:54:42;31.60;21.30
80367;DHT22;70058;42.660;23.366;2024-03-06T08:57:08;32.00;21.10
80367;DHT22;70058;42.660;23.366;2024-03-06T08:59:34;31.80;20.70
80367;DHT22;70058;42.660;23.366;2024-03-06T09:02:13;31.30;21.10
80367;DHT22;70058;42.660;23.366;2024-03-06T09:04:40;31.50;21.10
80367;DHT22;70058;42.660;23.366;2024-03-06T09:07:06;31.80;21.00
80367;DHT22;70058;42.660;23.366;2024-03-06T09:09:32;32.10;20.60
80367;DHT22;70058;42.660;23.366;2024-03-06T09:12:00;32.00;20.60
80367;DHT22;70058;42.660;23.366;2024-03-06T09:14:25;31.50;20.90
80367;DHT22;70058;42.660;23.366;2024-03-06T09:16:51;30.90;21.10
80367;DHT22;70058;42.660;23.366;2024-03-06T09:19:17;30.10;21.40
80367;DHT22;70058;42.660;23.366;2024-03-06T09:21:43;29.00;22.20
80367;DHT22;70058;42.660;23.366;2024-03-06T09:24:08;28.00;23.00
80367;DHT22;70058;42.660;23.366;2024-03-06T09:26:34;26.70;23.70
80367;DHT22;70058;42.660;23.366;2024-03-06T09:29:00;25.60;25.00
80367;DHT22;70058;42.660;23.366;2024-03-06T09:31:26;24.50;25.90
80367;DHT22;70058;42.660;23.366;2024-03-06T09:33:54;23.80;27.00
80367;DHT22;70058;42.660;23.366;2024-03-06T09:36:19;23.00;27.80
80367;DHT22;70058;42.660;23.366;2024-03-06T09:38:45;22.20;28.60
80367;DHT22;70058;42.660;23.366;2024-03-06T09:41:13;21.70;29.10
80367;DHT22;70058;42.660;23.366;2024-03-06T09:43:41;21.30;29.40
80367;DHT22;70058;42.660;23.366;2024-03-06T09:46:08;20.60;29.80
80367;DHT22;70058;42.660;23.366;2024-03-06T09:48:34;20.30;30.40
80367;DHT22;70058;42.660;23.366;2024-03-06T09:51:03;20.10;30.80
80367;DHT22;70058;42.660;23.366;2024-03-06T09:53:29;20.00;31.40
80367;DHT22;70058;42.660;23.366;2024-03-06T09:55:56;19.90;31.50
80367;DHT22;70058;42.660;23.366;2024-03-06T09:58:23;19.90;31.90
80367;DHT22;70058;42.660;23.366;2024-03-06T10:00:50;19.80;32.10
80367;DHT22;70058;42.660;23.366;2024-03-06T10:03:17;19.80;31.60
80367;DHT22;70058;42.660;23.366;2024-03-06T10:05:43;19.70;32.70
80367;DHT22;70058;42.660;23.366;2024-03-06T10:08:12;19.50;32.40
80367;DHT22;70058;42.660;23.366;2024-03-06T10:10:42;19.50;32.40
80367;DHT22;70058;42.660;23.366;2024-03-06T10:13:08;19.40;32.90
80367;DHT22;70058;42.660;23.366;2024-03-06T10:15:34;19.30;32.60
80367;DHT22;70058;42.660;23.366;2024-03-06T10:18:15;19.10;32.60
80367;DHT22;70058;42.660;23.366;2024-03-06T10:20:43;19.10;33.60
80367;DHT22;70058;42.660;23.366;2024-03-06T10:23:09;18.80;33.10
80367;DHT22;70058;42.660;23.366;2024-03-06T10:25:35;18.50;33.30
80367;DHT22;70058;42.660;23.366;2024-03-06T10:28:07;18.50;33.70
80367;DHT22;70058;42.660;23.366;2024-03-06T10:30:38;18.50;33.70
80367;DHT22;70058;42.660;23.366;2024-03-06T10:33:07;18.70;33.90
80367;DHT22;70058;42.660;23.366;2024-03-06T10:35:37;18.80;34.60
80367;DHT22;70058;42.660;23.366;2024-03-06T10:38:04;18.80;32.90
80367;DHT22;70058;42.660;23.366;2024-03-06T10:40:35;18.70;33.10
80367;DHT22;70058;42.660;23.366;2024-03-06T10:43:02;18.60;33.70
80367;DHT22;70058;42.660;23.366;2024-03-06T10:48:12;18.00;33.90
80367;DHT22;70058;42.660;23.366;2024-03-06T10:50:43;18.00;34.50
80367;DHT22;70058;42.660;23.366;2024-03-06T10:53:11;18.10;34.90
80367;DHT22;70058;42.660;23.366;2024-03-06T10:55:37;18.00;34.50
80367;DHT22;70058;42.660;23.366;2024-03-06T10:58:07;17.90;34.20
80367;DHT22;70058;42.660;23.366;2024-03-06T11:00:38;17.90;34.30
80367;DHT22;70058;42.660;23.366;2024-03-06T11:03:08;18.00;35.00
80367;DHT22;70058;42.660;23.366;2024-03-06T11:05:38;18.00;35.20
80367;DHT22;70058;42.660;23.366;2024-03-06T11:08:11;17.50;34.10
80367;DHT22;70058;42.660;23.366;2024-03-06T11:10:44;17.50;34.20
80367;DHT22;70058;42.660;23.366;2024-03-06T11:15:45;17.30;33.90
80367;DHT22;70058;42.660;23.366;2024-03-06T11:23:32;17.30;34.40
80367;DHT22;70058;42.660;23.366;2024-03-06T11:26:05;17.20;34.50
80367;DHT22;70058;42.660;23.366;2024-03-06T11:28:36;17.30;34.40
80367;DHT22;70058;42.660;23.366;2024-03-06T11:31:07;17.30;34.40
80367;DHT22;70058;42.660;23.366;2024-03-06T11:33:40;17.20;34.20
80367;DHT22;70058;42.660;23.366;2024-03-06T11:36:27;17.20;34.50
80367;DHT22;70058;42.660;23.366;2024-03-06T11:38:59;17.30;33.90
80367;DHT22;70058;42.660;23.366;2024-03-06T11:41:27;17.50;34.10
80367;DHT22;70058;42.660;23.366;2024-03-06T11:43:53;17.50;33.90
80367;DHT22;70058;42.660;23.366;2024-03-06T11:46:21;17.60;33.80
80367;DHT22;70058;42.660;23.366;2024-03-06T11:48:56;17.60;34.10
80367;DHT22;70058;42.660;23.366;2024-03-06T11:51:24;17.50;33.90
80367;DHT22;70058;42.660;23.366;2024-03-06T11:53:52;17.50;33.10
80367;DHT22;70058;42.660;23.366;2024-03-06T11:56:18;17.60;33.10
80367;DHT22;70058;42.660;23.366;2024-03-06T11:58:46;17.60;32.70
80367;DHT22;70058;42.660;23.366;2024-03-06T12:01:12;17.80;33.70
80367;DHT22;70058;42.660;23.366;2024-03-06T12:03:57;18.00;32.20
80367;DHT22;70058;42.660;23.366;2024-03-06T12:06:23;18.10;31.30
80367;DHT22;70058;42.660;23.366;2024-03-06T12:08:49;18.40;31.40
80367;DHT22;70058;42.660;23.366;2024-03-06T12:11:14;18.50;30.80
80367;DHT22;70058;42.660;23.366;2024-03-06T12:13:42;18.70;30.70
80367;DHT22;70058;42.660;23.366;2024-03-06T12:16:08;18.90;30.40
80367;DHT22;70058;42.660;23.366;2024-03-06T12:18:34;19.10;30.60
80367;DHT22;70058;42.660;23.366;2024-03-06T12:21:01;19.10;30.40
80367;DHT22;70058;42.660;23.366;2024-03-06T12:23:28;19.10;30.10
80367;DHT22;70058;42.660;23.366;2024-03-06T12:26:07;19.10;30.00
80367;DHT22;70058;42.660;23.366;2024-03-06T12:28:37;19.40;29.60
80367;DHT22;70058;42.660;23.366;2024-03-06T12:31:04;19.50;29.00
80367;DHT22;70058;42.660;23.366;2024-03-06T12:33:31;19.60;29.10
80367;DHT22;70058;42.660;23.366;2024-03-06T12:36:08;19.60;29.10
80367;DHT22;70058;42.660;23.366;2024-03-06T12:38:37;19.50;29.70
80367;DHT22;70058;42.660;23.366;2024-03-06T12:41:03;18.60;33.50
80367;DHT22;70058;42.660;23.366;2024-03-06T12:43:29;18.20;35.40
80367;DHT22;70058;42.660;23.366;2024-03-06T12:45:58;17.90;35.60
80367;DHT22;70058;42.660;23.366;2024-03-06T12:48:24;17.70;36.10
80367;DHT22;70058;42.660;23.366;2024-03-06T12:50:51;17.70;36.10
80367;DHT22;70058;42.660;23.366;2024-03-06T12:53:20;17.30;36.80
80367;DHT22;70058;42.660;23.366;2024-03-06T12:55:46;17.30;37.10
80367;DHT22;70058;42.660;23.366;2024-03-06T12:58:13;17.20;36.60
80367;DHT22;70058;42.660;23.366;2024-03-06T13:00:39;17.20;36.50
80367;DHT22;70058;42.660;23.366;2024-03-06T13:03:05;17.00;37.00
80367;DHT22;70058;42.660;23.366;2024-03-06T13:05:31;16.90;37.20
80367;DHT22;70058;42.660;23.366;2024-03-06T13:07:58;17.00;37.30
80367;DHT22;70058;42.660;23.366;2024-03-06T13:10:25;17.20;37.10
80367;DHT22;70058;42.660;23.366;2024-03-06T13:12:51;17.50;36.90
80367;DHT22;70058;42.660;23.366;2024-03-06T13:15:17;17.10;37.40
80367;DHT22;70058;42.660;23.366;2024-03-06T13:17:43;17.50;37.00
80367;DHT22;70058;42.660;23.366;2024-03-06T13:20:09;17.70;35.70
80367;DHT22;70058;42.660;23.366;2024-03-06T13:22:37;17.40;36.00
80367;DHT22;70058;42.660;23.366;2024-03-06T13:25:03;17.60;36.30
80367;DHT22;70058;42.660;23.366;2024-03-06T13:27:30;16.50;37.30
80367;DHT22;70058;42.660;23.366;2024-03-06T13:29:56;16.40;38.60
80367;DHT22;70058;42.660;23.366;2024-03-06T13:32:22;16.50;38.50
80367;DHT22;70058;42.660;23.366;2024-03-06T13:34:48;16.70;38.20
80367;DHT22;70058;42.660;23.366;2024-03-06T13:37:14;16.70;38.20
80367;DHT22;70058;42.660;23.366;2024-03-06T13:39:42;16.80;37.60
80367;DHT22;70058;42.660;23.366;2024-03-06T13:42:08;16.80;38.30
80367;DHT22;70058;42.660;23.366;2024-03-06T13:44:35;16.90;38.40
80367;DHT22;70058;42.660;23.366;2024-03-06T13:47:01;16.90;38.20
80367;DHT22;70058;42.660;23.366;2024-03-06T13:49:41;17.00;38.40
80367;DHT22;70058;42.660;23.366;2024-03-06T13:52:08;17.10;38.30
80367;DHT22;70058;42.660;23.366;2024-03-06T13:54:42;17.10;38.30
80367;DHT22;70058;42.660;23.366;2024-03-06T13:57:09;17.10;39.20
80367;DHT22;70058;42.660;23.366;2024-03-06T13:59:35;16.90;38.70
80367;DHT22;70058;42.660;23.366;2024-03-06T14:02:01;16.80;39.10
80367;DHT22;70058;42.660;23.366;2024-03-06T14:04:28;16.90;39.20
80367;DHT22;70058;42.660;23.366;2024-03-06T14:06:55;17.00;38.40
80367;DHT22;70058;42.660;23.366;2024-03-06T14:09:22;17.10;37.80
80367;DHT22;70058;42.660;23.366;2024-03-06T14:11:49;17.10;37.90
80367;DHT22;70058;42.660;23.366;2024-03-06T14:14:16;16.60;40.40
80367;DHT22;70058;42.660;23.366;2024-03-06T14:16:43;16.70;39.00
80367;DHT22;70058;42.660;23.366;2024-03-06T14:19:09;16.60;39.10
80367;DHT22;70058;42.660;23.366;2024-03-06T14:21:35;16.70;38.50
80367;DHT22;70058;42.660;23.366;2024-03-06T14:24:01;16.70;38.50
80367;DHT22;70058;42.660;23.366;2024-03-06T14:26:33;16.60;37.90
80367;DHT22;70058;42.660;23.366;2024-03-06T14:29:00;16.60;38.00
80367;DHT22;70058;42.660;23.366;2024-03-06T14:31:27;16.60;37.80
80367;DHT22;70058;42.660;23.366;2024-03-06T14:33:53;16.70;38.10
80367;DHT22;70058;42.660;23.366;2024-03-06T14:36:19;16.80;37.60
80367;DHT22;70058;42.660;23.366;2024-03-06T14:38:47;16.90;37.50
80367;DHT22;70058;42.660;23.366;2024-03-06T14:41:13;16.90;37.30
80367;DHT22;70058;42.660;23.366;2024-03-06T14:43:38;17.00;37.00
80367;DHT22;70058;42.660;23.366;2024-03-06T14:46:05;16.90;37.30
80367;DHT22;70058;42.660;23.366;2024-03-06T14:48:32;16.90;38.10
80367;DHT22;70058;42.660;23.366;2024-03-06T14:50:57;16.60;39.50
80367;DHT22;70058;42.660;23.366;2024-03-06T14:53:23;16.30;41.00
80367;DHT22;70058;42.660;23.366;2024-03-06T14:55:52;16.00;42.40
80367;DHT22;70058;42.660;23.366;2024-03-06T14:58:17;15.60;45.10
80367;DHT22;70058;42.660;23.366;2024-03-06T15:00:43;15.60;47.20
80367;DHT22;70058;42.660;23.366;2024-03-06T15:03:09;15.30;48.00
80367;DHT22;70058;42.660;23.366;2024-03-06T15:05:35;15.10;48.60
80367;DHT22;70058;42.660;23.366;2024-03-06T15:08:01;14.80;49.60
80367;DHT22;70058;42.660;23.366;2024-03-06T15:10:27;14.80;50.20
80367;DHT22;70058;42.660;23.366;2024-03-06T15:12:54;14.90;50.60
80367;DHT22;70058;42.660;23.366;2024-03-06T15:15:20;14.70;50.00
80367;DHT22;70058;42.660;23.366;2024-03-06T15:17:46;14.70;50.00
80367;DHT22;70058;42.660;23.366;2024-03-06T15:20:12;14.80;50.30
80367;DHT22;70058;42.660;23.366;2024-03-06T15:22:38;15.00;50.90
80367;DHT22;70058;42.660;23.366;2024-03-06T15:25:08;15.00;49.50
80367;DHT22;70058;42.660;23.366;2024-03-06T15:27:37;15.10;49.40
80367;DHT22;70058;42.660;23.366;2024-03-06T15:30:04;15.20;49.00